createdAt,value
2023-03-15T00:00:59.117Z,2.10
2023-03-15T00:10:58.904Z,2.00
2023-03-15T00:20:58.396Z,2.50
2023-03-15T00:30:58.398Z,2.50
2023-03-15T00:40:57.817Z,2.40
2023-03-15T00:50:52.615Z,2.80
2023-03-15T01:00:51.955Z,3.00
2023-03-15T01:10:51.642Z,3.20
2023-03-15T01:20:51.253Z,3.30
2023-03-15T01:30:51.225Z,2.90
2023-03-15T01:40:50.542Z,3.20
2023-03-15T01:50:50.322Z,3.80
2023-03-15T02:00:49.851Z,5.10
2023-03-15T02:10:44.253Z,5.50
2023-03-15T02:20:43.897Z,5.60
2023-03-15T02:30:44.037Z,5.30
2023-03-15T02:40:43.184Z,5.60
2023-03-15T02:50:42.998Z,5.80
2023-03-15T03:00:42.469Z,5.20
2023-03-15T03:10:42.116Z,4.50
2023-03-15T03:20:42.041Z,3.40
2023-03-15T03:30:36.053Z,2.90
2023-03-15T03:40:35.549Z,2.80
2023-03-15T03:50:35.170Z,2.80
2023-03-15T04:00:34.843Z,2.20
2023-03-15T04:10:34.450Z,1.90
2023-03-15T04:20:34.114Z,2.10
2023-03-15T04:30:33.741Z,2.40
2023-03-15T04:40:28.574Z,2.00
2023-03-15T04:50:28.017Z,2.60
2023-03-15T05:00:27.728Z,2.00
2023-03-15T05:10:27.288Z,2.10
2023-03-15T05:20:26.976Z,2.10
2023-03-15T05:30:26.587Z,2.10
2023-03-15T05:40:26.278Z,2.40
2023-03-15T05:50:20.789Z,3.40
2023-03-15T06:00:23.402Z,4.00
2023-03-15T06:10:20.189Z,3.90
2023-03-15T06:20:19.711Z,5.00
2023-03-15T06:30:19.293Z,5.30
2023-03-15T06:40:18.949Z,6.10
2023-03-15T06:50:20.808Z,5.70
2023-03-15T07:00:13.251Z,5.90
2023-03-15T07:10:13.021Z,6.40
2023-03-15T07:20:12.532Z,6.40
2023-03-15T07:30:12.127Z,6.90
2023-03-15T07:40:11.758Z,6.90
2023-03-15T07:50:11.381Z,7.00
2023-03-15T08:00:11.038Z,5.60
2023-03-15T08:10:10.630Z,7.30
2023-03-15T08:20:04.914Z,8.40
2023-03-15T08:30:04.538Z,8.00
2023-03-15T08:40:04.045Z,6.70
2023-03-15T08:50:10.634Z,8.20
2023-03-15T09:00:05.763Z,7.60
2023-03-15T09:10:05.454Z,6.90
2023-03-15T09:20:02.589Z,6.60
2023-03-15T09:30:05.203Z,4.90
2023-03-15T09:39:56.596Z,5.50
2023-03-15T09:49:56.279Z,4.80
2023-03-15T09:59:55.878Z,4.70
2023-03-15T10:09:55.753Z,4.80
2023-03-15T10:19:55.188Z,4.00
2023-03-15T10:29:54.883Z,4.30
2023-03-15T10:39:54.761Z,4.20
2023-03-15T10:49:54.456Z,3.30
2023-03-15T10:59:55.679Z,3.80
2023-03-15T11:09:53.721Z,3.20
2023-03-15T11:19:47.558Z,2.90
2023-03-15T11:29:47.264Z,3.30
2023-03-15T11:39:46.874Z,2.70
2023-03-15T11:49:46.533Z,3.10
2023-03-15T11:59:47.918Z,4.30
2023-03-15T12:09:46.678Z,3.70
2023-03-15T12:19:45.442Z,3.20
2023-03-15T12:29:45.816Z,3.50
2023-03-15T12:39:44.892Z,2.50
2023-03-15T12:49:44.410Z,3.10
2023-03-15T12:59:43.978Z,3.70
2023-03-15T13:09:43.663Z,3.20
2023-03-15T13:19:44.553Z,2.30
2023-03-15T13:29:39.876Z,2.70
2023-03-15T13:39:37.538Z,3.10
2023-03-15T13:49:38.179Z,3.50
2023-03-15T13:59:37.401Z,2.70
2023-03-15T14:09:36.252Z,2.60
2023-03-15T14:19:36.084Z,3.20
2023-03-15T14:29:35.548Z,3.10
2023-03-15T14:39:35.365Z,2.40
2023-03-15T14:49:37.490Z,2.60
2023-03-15T14:59:34.480Z,2.70
2023-03-15T15:09:34.982Z,2.50
2023-03-15T15:19:33.745Z,2.60
2023-03-15T15:29:33.674Z,2.60
2023-03-15T15:39:32.953Z,2.70
2023-03-15T15:49:32.745Z,2.60
2023-03-15T15:59:32.174Z,3.40
2023-03-15T16:09:32.011Z,2.70
2023-03-15T16:19:31.588Z,2.30
2023-03-15T16:29:31.059Z,2.20
2023-03-15T16:39:30.882Z,2.30
2023-03-15T16:49:30.471Z,2.40
2023-03-15T16:59:30.063Z,2.20
2023-03-15T17:09:29.782Z,2.10
2023-03-15T17:19:29.239Z,1.90
2023-03-15T17:29:29.023Z,2.00
2023-03-15T17:39:28.469Z,2.20
2023-03-15T17:49:28.150Z,2.10
2023-03-15T17:59:27.742Z,2.10
2023-03-15T18:09:27.882Z,2.00
2023-03-15T18:19:27.157Z,2.30
2023-03-15T18:29:26.664Z,2.40
2023-03-15T18:39:26.255Z,2.70
2023-03-15T18:49:20.958Z,3.20
2023-03-15T18:59:20.254Z,3.00
2023-03-15T19:09:19.938Z,2.80
2023-03-15T19:19:24.669Z,3.70
2023-03-15T19:29:19.377Z,3.20
2023-03-15T19:39:18.832Z,3.10
2023-03-15T19:49:18.450Z,3.20
2023-03-15T19:59:18.251Z,3.10
2023-03-15T20:09:17.847Z,3.50
2023-03-15T20:19:17.362Z,3.20
2023-03-15T20:29:16.937Z,3.30
2023-03-15T20:39:16.603Z,3.30
2023-03-15T20:49:16.230Z,3.00
2023-03-15T20:59:10.759Z,3.40
2023-03-15T21:09:10.390Z,6.80
2023-03-15T21:19:10.076Z,6.30
2023-03-15T21:29:09.602Z,3.40
2023-03-15T21:39:09.426Z,4.00
2023-03-15T21:49:08.845Z,3.50
2023-03-15T21:59:08.530Z,4.10
2023-03-15T22:09:08.256Z,3.70
2023-03-15T22:19:07.754Z,4.00
2023-03-15T22:29:07.371Z,4.20
2023-03-15T22:39:02.054Z,4.10
2023-03-15T22:49:01.532Z,3.90
2023-03-15T22:59:01.190Z,3.40
2023-03-15T23:09:00.837Z,3.50
2023-03-15T23:19:00.502Z,3.30
2023-03-15T23:29:00.110Z,3.20
2023-03-15T23:38:59.746Z,3.30
2023-03-15T23:48:59.377Z,3.30
2023-03-15T23:58:59.201Z,3.30
